createdAt,value
2019-02-22T00:00:34.454Z,0.00
2019-02-22T00:01:34.460Z,0.00
2019-02-22T00:02:34.507Z,0.00
2019-02-22T00:03:55.562Z,0.00
2019-02-22T00:04:34.519Z,0.00
2019-02-22T00:05:34.617Z,0.00
2019-02-22T00:06:34.558Z,0.00
2019-02-22T00:07:34.581Z,0.00
2019-02-22T00:08:34.657Z,0.00
2019-02-22T00:09:55.620Z,0.00
2019-02-22T00:10:34.638Z,0.00
2019-02-22T00:11:34.667Z,0.00
2019-02-22T00:12:34.672Z,0.00
2019-02-22T00:13:34.694Z,0.00
2019-02-22T00:14:34.713Z,0.00
2019-02-22T00:15:55.770Z,0.00
2019-02-22T00:16:34.753Z,0.00
2019-02-22T00:17:34.777Z,0.00
2019-02-22T00:18:34.801Z,0.00
2019-02-22T00:19:34.798Z,0.00
2019-02-22T00:20:34.860Z,0.00
2019-02-22T00:21:55.908Z,0.00
2019-02-22T00:22:34.854Z,0.00
2019-02-22T00:23:34.900Z,0.00
2019-02-22T00:24:34.899Z,0.00
2019-02-22T00:25:34.975Z,0.00
2019-02-22T00:26:34.943Z,0.00
2019-02-22T00:27:56.022Z,0.00
2019-02-22T00:28:34.953Z,0.00
2019-02-22T00:29:34.969Z,0.00
2019-02-22T00:30:35.027Z,0.00
2019-02-22T00:31:35.010Z,0.00
2019-02-22T00:32:35.023Z,0.00
2019-02-22T00:33:56.048Z,0.00
2019-02-22T00:34:35.072Z,0.00
2019-02-22T00:35:35.140Z,0.00
2019-02-22T00:36:35.093Z,0.00
2019-02-22T00:37:35.125Z,0.00
2019-02-22T00:38:35.149Z,0.00
2019-02-22T00:39:56.189Z,0.00
2019-02-22T00:40:35.187Z,0.00
2019-02-22T00:41:35.210Z,0.00
2019-02-22T00:42:35.207Z,0.00
2019-02-22T00:43:35.297Z,0.00
2019-02-22T00:44:35.235Z,0.00
2019-02-22T00:45:56.291Z,0.00
2019-02-22T00:46:35.282Z,0.00
2019-02-22T00:47:35.302Z,0.00
2019-02-22T00:48:35.310Z,0.00
2019-02-22T00:49:35.326Z,0.00
2019-02-22T00:50:35.449Z,0.00
2019-02-22T00:51:56.418Z,0.00
2019-02-22T00:52:35.375Z,0.00
2019-02-22T00:53:35.419Z,0.00
2019-02-22T00:54:35.421Z,0.00
2019-02-22T00:55:35.443Z,0.00
2019-02-22T00:56:35.456Z,0.00
2019-02-22T00:57:56.498Z,0.00
2019-02-22T00:58:35.489Z,0.00
2019-02-22T00:59:35.513Z,0.00
2019-02-22T01:00:35.547Z,0.00
2019-02-22T01:01:35.552Z,0.00
2019-02-22T01:02:35.565Z,0.00
2019-02-22T01:03:56.612Z,0.00
2019-02-22T01:04:35.601Z,0.00
2019-02-22T01:05:35.620Z,0.00
2019-02-22T01:06:35.636Z,0.00
2019-02-22T01:07:35.791Z,0.00
2019-02-22T01:08:35.683Z,0.00
2019-02-22T01:09:56.713Z,0.00
2019-02-22T01:10:35.705Z,0.00
2019-02-22T01:11:35.727Z,0.00
2019-02-22T01:12:35.760Z,0.00
2019-02-22T01:13:35.773Z,0.00
2019-02-22T01:14:35.934Z,0.00
2019-02-22T01:15:56.836Z,0.00
2019-02-22T01:16:35.810Z,0.00
2019-02-22T01:17:35.825Z,0.00
2019-02-22T01:18:35.853Z,0.00
2019-02-22T01:19:35.867Z,0.00
2019-02-22T01:20:35.916Z,0.00
2019-02-22T01:21:56.920Z,0.00
2019-02-22T01:22:35.944Z,0.00
2019-02-22T01:23:35.928Z,0.00
2019-02-22T01:24:35.958Z,0.00
2019-02-22T01:25:35.978Z,0.00
2019-02-22T01:26:36.026Z,0.00
2019-02-22T01:27:57.032Z,0.00
2019-02-22T01:28:36.032Z,0.00
2019-02-22T01:29:36.105Z,0.00
2019-02-22T01:30:36.055Z,0.00
2019-02-22T01:31:36.094Z,0.00
2019-02-22T01:32:36.099Z,0.00
2019-02-22T01:33:57.137Z,0.00
2019-02-22T01:34:36.132Z,0.00
2019-02-22T01:35:36.164Z,0.00
2019-02-22T01:36:36.234Z,0.00
2019-02-22T01:37:36.191Z,0.00
2019-02-22T01:38:36.204Z,0.00
2019-02-22T01:39:57.255Z,0.00
2019-02-22T01:40:43.827Z,0.00
2019-02-22T01:41:36.249Z,0.00
2019-02-22T01:42:36.273Z,0.00
2019-02-22T01:43:36.293Z,0.00
2019-02-22T01:44:36.299Z,0.00
2019-02-22T01:45:57.346Z,0.00
2019-02-22T01:46:36.441Z,0.00
2019-02-22T01:47:36.387Z,0.00
2019-02-22T01:48:36.390Z,0.00
2019-02-22T01:49:36.398Z,0.00
2019-02-22T01:50:36.423Z,0.00
2019-02-22T01:51:57.473Z,0.00
2019-02-22T01:52:36.462Z,0.00
2019-02-22T01:53:36.530Z,0.00
2019-02-22T01:54:36.519Z,0.00
2019-02-22T01:55:36.508Z,0.00
2019-02-22T01:58:48.243Z,0.00
2019-02-22T01:59:18.796Z,0.00
2019-02-22T02:00:18.820Z,0.00
2019-02-22T02:01:18.890Z,0.00
2019-02-22T02:02:18.878Z,0.00
2019-02-22T02:03:18.885Z,0.00
2019-02-22T02:04:39.929Z,0.00
2019-02-22T02:05:18.908Z,0.00
2019-02-22T02:06:18.933Z,0.00
2019-02-22T02:07:18.940Z,0.00
2019-02-22T02:08:18.969Z,0.00
2019-02-22T02:09:18.977Z,0.00
2019-02-22T02:10:40.022Z,0.00
2019-02-22T02:11:19.028Z,0.00
2019-02-22T02:12:19.042Z,0.00
2019-02-22T02:13:19.085Z,0.00
2019-02-22T02:14:19.073Z,0.00
2019-02-22T02:15:19.094Z,0.00
2019-02-22T02:16:40.140Z,0.00
2019-02-22T02:17:19.129Z,0.00
2019-02-22T02:18:19.287Z,0.00
2019-02-22T02:19:19.166Z,0.00
2019-02-22T02:20:19.183Z,0.00
2019-02-22T02:23:22.321Z,0.00
2019-02-22T02:24:01.331Z,0.00
2019-02-22T02:25:01.334Z,0.00
2019-02-22T02:26:01.383Z,0.00
2019-02-22T02:27:01.363Z,0.00
2019-02-22T02:28:01.394Z,0.00
2019-02-22T02:29:22.422Z,0.00
2019-02-22T02:30:01.432Z,0.00
2019-02-22T02:31:01.446Z,0.00
2019-02-22T02:32:01.465Z,0.00
2019-02-22T02:33:01.498Z,0.00
2019-02-22T02:34:01.494Z,0.00
2019-02-22T02:35:22.523Z,0.00
2019-02-22T02:36:01.566Z,0.00
2019-02-22T02:37:01.557Z,0.00
2019-02-22T02:38:01.593Z,0.00
2019-02-22T02:39:01.725Z,0.00
2019-02-22T02:40:01.602Z,0.00
2019-02-22T02:41:22.629Z,0.00
2019-02-22T02:42:01.666Z,0.00
2019-02-22T02:43:01.664Z,0.00
2019-02-22T02:44:01.673Z,0.00
2019-02-22T02:45:01.682Z,0.00
2019-02-22T02:46:01.716Z,0.00
2019-02-22T02:47:22.748Z,0.00
2019-02-22T02:48:01.740Z,0.00
2019-02-22T02:49:01.829Z,0.00
2019-02-22T02:50:01.791Z,0.00
2019-02-22T02:51:01.796Z,0.00
2019-02-22T02:52:01.840Z,0.00
2019-02-22T02:53:22.847Z,0.00
2019-02-22T02:54:01.848Z,0.00
2019-02-22T02:55:01.883Z,0.00
2019-02-22T02:56:02.062Z,0.00
2019-02-22T02:57:01.903Z,0.00
2019-02-22T02:58:01.918Z,0.00
2019-02-22T02:59:22.963Z,0.00
2019-02-22T03:00:01.963Z,0.00
2019-02-22T03:01:01.982Z,0.00
2019-02-22T03:02:01.984Z,0.00
2019-02-22T03:03:02.028Z,0.00
2019-02-22T03:04:02.031Z,0.00
2019-02-22T03:05:23.104Z,0.00
2019-02-22T03:06:02.059Z,0.00
2019-02-22T03:07:02.118Z,0.00
2019-02-22T03:08:02.091Z,0.00
2019-02-22T03:09:02.840Z,0.00
2019-02-22T03:10:02.164Z,0.00
2019-02-22T03:11:23.162Z,0.00
2019-02-22T03:12:02.185Z,0.00
2019-02-22T03:13:02.184Z,0.00
2019-02-22T03:14:02.201Z,0.00
2019-02-22T03:15:02.228Z,0.00
2019-02-22T03:16:02.240Z,0.00
2019-02-22T03:17:23.267Z,0.00
2019-02-22T03:18:02.278Z,0.00
2019-02-22T03:19:02.288Z,0.00
2019-02-22T03:20:02.326Z,0.00
2019-02-22T03:21:02.481Z,0.00
2019-02-22T03:22:02.361Z,0.00
2019-02-22T03:25:05.815Z,0.00
2019-02-22T03:26:05.821Z,0.00
2019-02-22T03:27:05.931Z,0.00
2019-02-22T03:28:05.890Z,0.00
2019-02-22T03:29:05.895Z,0.00
2019-02-22T03:30:26.914Z,0.00
2019-02-22T03:31:05.948Z,0.00
2019-02-22T03:32:05.965Z,0.00
2019-02-22T03:33:05.963Z,0.00
2019-02-22T03:34:05.986Z,0.00
2019-02-22T03:35:06.004Z,0.00
2019-02-22T03:36:27.022Z,0.00
2019-02-22T03:37:06.100Z,0.00
2019-02-22T03:38:06.121Z,0.00
2019-02-22T03:39:06.057Z,0.00
2019-02-22T03:40:06.074Z,0.00
2019-02-22T03:41:06.103Z,0.00
2019-02-22T03:42:27.124Z,0.00
2019-02-22T03:43:06.154Z,0.00
2019-02-22T03:44:06.163Z,0.00
2019-02-22T03:45:06.169Z,0.00
2019-02-22T03:46:06.204Z,0.00
2019-02-22T03:47:06.303Z,0.00
2019-02-22T03:48:27.354Z,0.00
2019-02-22T03:49:06.261Z,0.00
2019-02-22T03:50:06.274Z,0.00
2019-02-22T03:51:06.279Z,0.00
2019-02-22T03:52:06.291Z,0.00
2019-02-22T03:53:06.323Z,0.00
2019-02-22T03:54:27.349Z,0.00
2019-02-22T03:55:06.382Z,0.00
2019-02-22T03:56:06.376Z,0.00
2019-02-22T03:57:06.443Z,0.00
2019-02-22T03:58:06.399Z,0.00
2019-02-22T03:59:06.422Z,0.00
2019-02-22T04:00:27.446Z,0.00
2019-02-22T04:01:06.461Z,0.00
2019-02-22T04:02:06.479Z,0.00
2019-02-22T04:03:06.512Z,0.00
2019-02-22T04:04:06.666Z,0.00
2019-02-22T04:05:06.532Z,0.00
2019-02-22T04:06:27.556Z,0.00
2019-02-22T04:07:06.568Z,0.00
2019-02-22T04:08:07.339Z,0.00
2019-02-22T04:09:06.652Z,0.00
2019-02-22T04:10:06.627Z,0.00
2019-02-22T04:11:06.642Z,0.00
2019-02-22T04:12:27.656Z,0.00
2019-02-22T04:13:06.668Z,0.00
2019-02-22T04:14:06.714Z,0.00
2019-02-22T04:15:06.771Z,0.00
2019-02-22T04:16:06.813Z,0.00
2019-02-22T04:17:06.752Z,0.00
2019-02-22T04:18:27.765Z,0.00
2019-02-22T04:19:06.776Z,0.00
2019-02-22T04:20:06.791Z,0.00
2019-02-22T04:21:06.821Z,0.00
2019-02-22T04:22:06.834Z,0.00
2019-02-22T04:23:06.841Z,0.00
2019-02-22T04:24:27.891Z,0.00
2019-02-22T04:25:06.890Z,0.00
2019-02-22T04:26:07.039Z,0.00
2019-02-22T04:27:06.914Z,0.00
2019-02-22T04:28:06.946Z,0.00
2019-02-22T04:29:06.955Z,0.00
2019-02-22T04:30:28.055Z,0.00
2019-02-22T04:31:06.977Z,0.00
2019-02-22T04:32:07.043Z,0.00
2019-02-22T04:33:07.025Z,0.00
2019-02-22T04:34:07.045Z,0.00
2019-02-22T04:35:12.361Z,0.00
2019-02-22T04:36:28.085Z,0.00
2019-02-22T04:37:07.082Z,0.00
2019-02-22T04:38:07.123Z,0.00
2019-02-22T04:39:07.126Z,0.00
2019-02-22T04:40:07.139Z,0.00
2019-02-22T04:41:07.197Z,0.00
2019-02-22T04:42:28.309Z,0.00
2019-02-22T04:43:07.229Z,0.00
2019-02-22T04:44:07.210Z,0.00
2019-02-22T04:45:07.240Z,0.00
2019-02-22T04:46:07.276Z,0.00
2019-02-22T04:49:10.368Z,0.00
2019-02-22T04:49:49.351Z,0.00
2019-02-22T04:50:49.391Z,0.00
2019-02-22T04:51:49.409Z,0.00
2019-02-22T04:52:49.405Z,0.00
2019-02-22T04:53:49.443Z,0.00
2019-02-22T04:55:10.543Z,0.00
2019-02-22T04:55:49.460Z,0.00
2019-02-22T04:56:49.492Z,0.00
2019-02-22T04:57:49.493Z,0.00
2019-02-22T04:58:49.519Z,0.00
2019-02-22T04:59:49.542Z,0.00
2019-02-22T05:01:10.574Z,0.00
2019-02-22T05:01:49.569Z,0.00
2019-02-22T05:02:49.582Z,0.00
2019-02-22T05:03:49.603Z,0.00
2019-02-22T05:04:49.637Z,0.00
2019-02-22T05:05:49.648Z,0.00
2019-02-22T05:07:10.683Z,0.00
2019-02-22T05:07:49.735Z,0.00
2019-02-22T05:08:49.694Z,0.00
2019-02-22T05:09:49.707Z,0.00
2019-02-22T05:10:49.755Z,0.00
2019-02-22T05:11:49.742Z,0.00
2019-02-22T05:13:10.797Z,0.00
2019-02-22T05:13:49.789Z,0.00
2019-02-22T05:14:49.798Z,0.00
2019-02-22T05:15:49.809Z,0.00
2019-02-22T05:16:49.836Z,0.00
2019-02-22T05:17:49.928Z,0.00
2019-02-22T05:19:10.914Z,0.00
2019-02-22T05:19:49.884Z,0.00
2019-02-22T05:20:49.944Z,0.00
2019-02-22T05:21:49.926Z,0.00
2019-02-22T05:22:49.935Z,0.00
2019-02-22T05:23:49.942Z,0.00
2019-02-22T05:25:11.009Z,0.00
2019-02-22T05:25:49.989Z,0.00
2019-02-22T05:26:49.997Z,0.00
2019-02-22T05:27:50.187Z,0.00
2019-02-22T05:30:32.360Z,0.00
2019-02-22T05:31:53.391Z,0.00
2019-02-22T05:32:32.390Z,0.00
2019-02-22T05:33:32.404Z,0.00
2019-02-22T05:34:32.443Z,0.00
2019-02-22T05:35:32.505Z,0.00
2019-02-22T05:36:32.454Z,0.00
2019-02-22T05:37:53.486Z,0.00
2019-02-22T05:38:32.487Z,0.00
2019-02-22T05:39:32.510Z,0.00
2019-02-22T05:40:32.540Z,0.00
2019-02-22T05:41:32.542Z,0.00
2019-02-22T05:42:32.621Z,0.00
2019-02-22T05:43:53.591Z,0.00
2019-02-22T05:44:32.593Z,0.00
2019-02-22T05:45:33.387Z,0.00
2019-02-22T05:46:32.643Z,0.00
2019-02-22T05:47:32.682Z,0.00
2019-02-22T05:48:32.679Z,0.00
2019-02-22T05:49:53.714Z,0.00
2019-02-22T05:50:32.718Z,0.00
2019-02-22T05:51:32.720Z,0.00
2019-02-22T05:52:32.828Z,0.00
2019-02-22T05:53:32.759Z,0.00
2019-02-22T05:54:32.769Z,0.00
2019-02-22T05:55:53.807Z,0.00
2019-02-22T05:56:32.825Z,0.00
2019-02-22T05:57:32.825Z,0.00
2019-02-22T05:58:32.856Z,0.00
2019-02-22T05:59:32.875Z,0.00
2019-02-22T06:00:33.118Z,0.00
2019-02-22T06:01:53.924Z,0.00
2019-02-22T06:02:33.880Z,0.00
2019-02-22T06:03:32.936Z,0.00
2019-02-22T06:04:33.476Z,0.00
2019-02-22T06:05:32.977Z,0.00
2019-02-22T06:06:32.988Z,0.00
2019-02-22T06:07:54.007Z,0.00
2019-02-22T06:08:33.021Z,0.00
2019-02-22T06:09:33.161Z,0.00
2019-02-22T06:10:33.050Z,0.00
2019-02-22T06:11:33.066Z,0.00
2019-02-22T06:12:34.957Z,0.00
2019-02-22T06:13:54.111Z,0.00
2019-02-22T06:14:33.118Z,0.00
2019-02-22T06:15:33.167Z,0.00
2019-02-22T06:16:33.169Z,0.00
2019-02-22T06:17:33.174Z,0.00
2019-02-22T06:18:33.188Z,0.00
2019-02-22T06:19:54.226Z,0.00
2019-02-22T06:20:33.220Z,0.00
2019-02-22T06:21:33.309Z,0.00
2019-02-22T06:22:33.267Z,0.00
2019-02-22T06:23:33.273Z,0.00
2019-02-22T06:24:33.320Z,0.00
2019-02-22T06:25:54.450Z,0.00
2019-02-22T06:26:33.336Z,0.00
2019-02-22T06:27:33.340Z,0.00
2019-02-22T06:28:33.361Z,0.00
2019-02-22T06:29:33.380Z,0.00
2019-02-22T06:30:33.398Z,0.00
2019-02-22T06:31:54.446Z,0.00
2019-02-22T06:32:33.430Z,0.00
2019-02-22T06:33:33.442Z,0.00
2019-02-22T06:34:33.472Z,0.00
2019-02-22T06:35:33.482Z,0.00
2019-02-22T06:36:33.514Z,0.00
2019-02-22T06:37:54.542Z,0.00
2019-02-22T06:38:33.542Z,0.00
2019-02-22T06:39:33.565Z,0.00
2019-02-22T06:40:33.564Z,0.00
2019-02-22T06:41:33.655Z,0.00
2019-02-22T06:42:33.613Z,0.00
2019-02-22T06:43:54.647Z,0.00
2019-02-22T06:44:33.645Z,0.00
2019-02-22T06:45:33.696Z,0.00
2019-02-22T06:46:33.675Z,0.00
2019-02-22T06:47:33.698Z,0.00
2019-02-22T06:48:33.714Z,0.00
2019-02-22T06:49:54.768Z,0.00
2019-02-22T06:50:34.203Z,0.00
2019-02-22T06:51:33.806Z,0.00
2019-02-22T06:52:33.791Z,0.00
2019-02-22T06:53:33.821Z,0.00
2019-02-22T06:54:33.820Z,0.00
2019-02-22T06:55:54.867Z,0.00
2019-02-22T06:56:33.861Z,0.00
2019-02-22T06:57:33.893Z,0.00
2019-02-22T06:58:33.953Z,0.00
2019-02-22T06:59:33.903Z,0.00
2019-02-22T07:00:33.963Z,0.00
2019-02-22T07:01:54.973Z,0.00
2019-02-22T07:02:33.960Z,0.00
2019-02-22T07:03:33.980Z,0.00
2019-02-22T07:04:33.996Z,0.00
2019-02-22T07:05:34.030Z,0.00
2019-02-22T07:06:34.063Z,0.00
2019-02-22T07:07:56.792Z,0.00
2019-02-22T07:08:34.120Z,0.00
2019-02-22T07:09:34.081Z,0.00
2019-02-22T07:10:34.115Z,0.00
2019-02-22T07:11:34.109Z,0.00
2019-02-22T07:12:34.141Z,0.00
2019-02-22T07:13:55.167Z,0.00
2019-02-22T07:14:34.177Z,0.00
2019-02-22T07:15:34.187Z,0.00
2019-02-22T07:16:34.207Z,0.00
2019-02-22T07:17:34.237Z,0.00
2019-02-22T07:18:34.287Z,0.00
2019-02-22T07:19:55.284Z,0.00
2019-02-22T07:20:34.269Z,0.00
2019-02-22T07:21:49.169Z,0.00
2019-02-22T07:22:34.356Z,0.00
2019-02-22T07:23:34.340Z,0.00
2019-02-22T07:24:34.363Z,0.00
2019-02-22T07:25:55.384Z,0.00
2019-02-22T07:26:34.390Z,0.00
2019-02-22T07:27:34.395Z,0.00
2019-02-22T07:28:34.416Z,0.00
2019-02-22T07:29:34.449Z,0.00
2019-02-22T07:30:34.497Z,0.00
2019-02-22T07:32:05.278Z,0.00
2019-02-22T07:32:34.493Z,0.00
2019-02-22T07:33:34.673Z,0.00
2019-02-22T07:34:34.534Z,0.00
2019-02-22T07:37:16.912Z,0.00
2019-02-22T07:38:37.914Z,0.00
2019-02-22T07:39:27.508Z,0.00
2019-02-22T07:40:19.786Z,0.00
2019-02-22T07:41:16.961Z,0.00
2019-02-22T07:42:16.973Z,0.00
2019-02-22T07:43:17.032Z,0.00
2019-02-22T07:44:38.026Z,0.00
2019-02-22T07:45:17.025Z,0.00
2019-02-22T07:46:17.067Z,0.00
2019-02-22T08:05:41.788Z,0.00
2019-02-22T08:06:42.621Z,0.00
2019-02-22T08:08:02.837Z,0.00
2019-02-22T08:08:41.820Z,0.00
2019-02-22T08:09:41.831Z,0.00
2019-02-22T08:10:41.842Z,0.00
2019-02-22T08:11:41.873Z,0.00
2019-02-22T08:12:42.038Z,0.00
2019-02-22T08:14:02.917Z,0.00
2019-02-22T08:14:41.935Z,0.00
2019-02-22T08:15:41.947Z,0.00
2019-02-22T08:16:41.979Z,0.00
2019-02-22T08:17:41.974Z,0.00
2019-02-22T08:18:41.996Z,0.00
2019-02-22T08:20:03.085Z,0.00
2019-02-22T08:20:42.031Z,0.00
2019-02-22T08:21:42.054Z,0.00
2019-02-22T08:22:42.371Z,0.00
2019-02-22T08:23:42.087Z,0.00
2019-02-22T08:24:42.115Z,0.00
2019-02-22T08:26:03.140Z,0.00
2019-02-22T08:26:42.130Z,0.00
2019-02-22T08:27:53.001Z,0.00
2019-02-22T08:28:42.180Z,0.00
2019-02-22T08:29:43.063Z,0.00
2019-02-22T08:30:42.965Z,0.00
2019-02-22T08:32:03.252Z,0.00
2019-02-22T08:32:42.314Z,0.00
2019-02-22T08:33:42.421Z,0.00
2019-02-22T08:34:42.288Z,0.00
2019-02-22T08:35:42.318Z,0.00
2019-02-22T08:36:42.319Z,0.00
2019-02-22T08:38:03.339Z,0.00
2019-02-22T08:38:42.350Z,0.00
2019-02-22T08:39:42.379Z,0.00
2019-02-22T08:40:42.403Z,0.00
2019-02-22T08:41:42.412Z,0.00
2019-02-22T08:42:42.476Z,0.00
2019-02-22T08:44:03.484Z,0.00
2019-02-22T08:44:42.466Z,0.00
2019-02-22T08:45:42.477Z,0.00
2019-02-22T08:46:42.560Z,5.63
2019-02-22T08:47:42.619Z,5.63
2019-02-22T08:48:42.525Z,5.63
2019-02-22T08:50:03.576Z,5.63
2019-02-22T08:50:42.584Z,5.63
2019-02-22T08:51:42.577Z,5.63
2019-02-22T08:52:42.608Z,5.63
2019-02-22T08:53:42.649Z,11.25
2019-02-22T08:54:47.069Z,11.25
2019-02-22T08:56:03.683Z,5.63
2019-02-22T08:56:42.676Z,5.63
2019-02-22T08:57:42.730Z,11.25
2019-02-22T08:58:42.722Z,11.25
2019-02-22T08:59:42.734Z,11.25
2019-02-22T09:00:42.736Z,5.63
2019-02-22T09:02:03.789Z,5.63
2019-02-22T09:02:42.782Z,5.63
2019-02-22T09:03:50.554Z,5.63
2019-02-22T09:04:42.919Z,5.63
2019-02-22T09:05:42.830Z,5.63
2019-02-22T09:06:42.872Z,5.63
2019-02-22T09:08:03.885Z,5.63
2019-02-22T09:08:42.895Z,5.63
2019-02-22T09:09:42.906Z,5.63
2019-02-22T09:10:42.926Z,5.63
2019-02-22T09:11:42.969Z,5.63
2019-02-22T09:12:43.048Z,5.63
2019-02-22T09:14:04.022Z,5.63
2019-02-22T09:14:43.131Z,5.63
2019-02-22T09:15:43.027Z,5.63
2019-02-22T09:16:43.037Z,5.63
2019-02-22T09:17:43.051Z,5.63
2019-02-22T09:18:43.078Z,11.25
2019-02-22T09:20:04.100Z,11.25
2019-02-22T09:20:43.134Z,11.25
2019-02-22T09:21:43.254Z,16.88
2019-02-22T09:22:43.154Z,11.25
2019-02-22T09:23:43.168Z,11.25
2019-02-22T09:24:43.174Z,11.25
2019-02-22T09:26:04.235Z,11.25
2019-02-22T09:28:29.416Z,11.25
2019-02-22T09:29:29.486Z,11.25
2019-02-22T09:30:29.453Z,11.25
2019-02-22T09:31:29.469Z,11.25
2019-02-22T09:32:50.518Z,11.25
2019-02-22T09:33:29.502Z,11.25
2019-02-22T09:34:29.540Z,11.25
2019-02-22T09:35:29.544Z,11.25
2019-02-22T09:36:29.610Z,11.25
2019-02-22T09:37:29.581Z,11.25
2019-02-22T09:38:50.626Z,11.25
2019-02-22T09:39:29.648Z,5.63
2019-02-22T09:40:29.631Z,5.63
2019-02-22T09:41:29.656Z,5.63
2019-02-22T09:42:29.680Z,5.63
2019-02-22T09:43:29.768Z,5.63
2019-02-22T09:44:50.716Z,5.63
2019-02-22T09:45:29.733Z,11.25
2019-02-22T09:46:29.901Z,11.25
2019-02-22T09:47:29.769Z,11.25
2019-02-22T09:48:29.784Z,5.63
2019-02-22T09:49:29.802Z,5.63
2019-02-22T09:50:50.839Z,5.63
2019-02-22T09:51:29.839Z,5.63
2019-02-22T09:52:29.853Z,11.25
2019-02-22T09:53:29.881Z,11.25
2019-02-22T09:54:29.897Z,11.25
2019-02-22T09:55:29.915Z,11.25
2019-02-22T09:56:51.120Z,11.25
2019-02-22T09:57:29.947Z,16.88
2019-02-22T09:58:29.968Z,16.88
2019-02-22T09:59:30.008Z,16.88
2019-02-22T10:00:29.999Z,16.88
2019-02-22T10:01:30.060Z,16.88
2019-02-22T10:02:51.223Z,22.50
2019-02-22T10:03:30.062Z,22.50
2019-02-22T10:04:30.072Z,22.50
2019-02-22T10:05:30.093Z,22.50
2019-02-22T10:06:30.106Z,22.50
2019-02-22T10:07:30.122Z,22.50
2019-02-22T10:08:51.168Z,28.13
2019-02-22T10:09:30.166Z,33.75
2019-02-22T10:10:30.199Z,33.75
2019-02-22T10:11:30.212Z,28.13
2019-02-22T10:12:30.213Z,22.50
2019-02-22T10:13:30.260Z,16.88
2019-02-22T10:14:51.286Z,16.88
2019-02-22T10:15:30.278Z,16.88
2019-02-22T10:16:30.306Z,16.88
2019-02-22T10:17:30.320Z,16.88
2019-02-22T10:18:30.432Z,16.88
2019-02-22T10:19:30.355Z,16.88
2019-02-22T10:20:51.390Z,11.25
2019-02-22T10:21:30.414Z,11.25
2019-02-22T10:22:30.428Z,11.25
2019-02-22T10:23:30.451Z,11.25
2019-02-22T10:24:30.450Z,11.25
2019-02-22T10:25:30.505Z,11.25
2019-02-22T10:26:51.629Z,11.25
2019-02-22T10:27:30.511Z,11.25
2019-02-22T10:28:30.515Z,11.25
2019-02-22T10:29:30.537Z,11.25
2019-02-22T10:30:30.578Z,16.88
2019-02-22T10:31:30.577Z,22.50
2019-02-22T10:32:51.634Z,28.13
2019-02-22T10:33:36.811Z,22.50
2019-02-22T10:34:30.632Z,16.88
2019-02-22T10:35:30.815Z,16.88
2019-02-22T10:36:30.666Z,16.88
2019-02-22T10:37:30.688Z,16.88
2019-02-22T10:38:51.722Z,16.88
2019-02-22T10:39:30.751Z,22.50
2019-02-22T10:40:30.741Z,22.50
2019-02-22T10:41:30.766Z,33.75
2019-02-22T10:42:30.803Z,33.75
2019-02-22T10:43:30.820Z,33.75
2019-02-22T10:44:51.842Z,28.13
2019-02-22T10:45:30.913Z,28.13
2019-02-22T10:46:30.870Z,33.75
2019-02-22T10:47:30.870Z,33.75
2019-02-22T10:48:30.905Z,39.38
2019-02-22T10:49:30.916Z,33.75
2019-02-22T10:50:51.983Z,33.75
2019-02-22T10:51:30.987Z,39.38
2019-02-22T10:52:30.977Z,39.38
2019-02-22T10:53:31.050Z,39.38
2019-02-22T10:54:31.013Z,33.75
2019-02-22T10:55:31.042Z,33.75
2019-02-22T10:56:52.078Z,33.75
2019-02-22T10:57:31.081Z,33.75
2019-02-22T10:58:31.083Z,28.13
2019-02-22T10:59:31.109Z,45.00
2019-02-22T11:00:31.137Z,33.75
2019-02-22T11:01:31.158Z,33.75
2019-02-22T11:02:52.201Z,28.13
2019-02-22T11:03:31.246Z,33.75
2019-02-22T11:04:31.240Z,50.63
2019-02-22T11:05:31.233Z,39.38
2019-02-22T11:06:31.248Z,50.63
2019-02-22T11:07:31.370Z,84.38
2019-02-22T11:08:52.476Z,84.38
2019-02-22T11:09:31.291Z,84.38
2019-02-22T11:10:31.333Z,140.63
2019-02-22T11:11:31.335Z,106.88
2019-02-22T11:12:31.359Z,28.13
2019-02-22T11:13:31.384Z,112.50
2019-02-22T11:14:52.416Z,151.88
2019-02-22T11:15:31.425Z,45.00
2019-02-22T11:16:31.434Z,45.00
2019-02-22T11:17:31.497Z,22.50
2019-02-22T11:18:31.505Z,22.50
2019-02-22T11:19:31.508Z,16.88
2019-02-22T11:20:52.535Z,22.50
2019-02-22T11:21:31.549Z,22.50
2019-02-22T11:22:31.554Z,28.13
2019-02-22T11:23:31.619Z,33.75
2019-02-22T11:24:31.591Z,39.38
2019-02-22T11:25:31.617Z,39.38
2019-02-22T11:26:52.649Z,28.13
2019-02-22T11:27:31.676Z,33.75
2019-02-22T11:28:31.685Z,61.88
2019-02-22T11:29:31.703Z,101.25
2019-02-22T11:30:31.732Z,45.00
2019-02-22T11:31:31.744Z,45.00
2019-02-22T11:32:52.771Z,61.88
2019-02-22T11:33:31.780Z,33.75
2019-02-22T11:34:31.931Z,28.13
2019-02-22T11:35:31.848Z,28.13
2019-02-22T11:36:31.837Z,28.13
2019-02-22T11:37:31.880Z,33.75
2019-02-22T11:38:52.959Z,22.50
2019-02-22T11:39:31.914Z,50.63
2019-02-22T11:40:33.679Z,28.13
2019-02-22T11:41:31.943Z,28.13
2019-02-22T11:42:31.948Z,84.38
2019-02-22T11:43:31.977Z,28.13
2019-02-22T11:44:53.017Z,61.88
2019-02-22T11:45:32.026Z,28.13
2019-02-22T11:46:32.045Z,22.50
2019-02-22T11:47:32.052Z,16.88
2019-02-22T11:48:32.091Z,16.88
2019-02-22T11:49:32.102Z,118.13
2019-02-22T11:50:53.226Z,16.88
2019-02-22T11:51:32.138Z,16.88
2019-02-22T11:52:32.160Z,16.88
2019-02-22T11:53:32.176Z,16.88
2019-02-22T11:54:32.241Z,16.88
2019-02-22T11:55:32.251Z,11.25
2019-02-22T11:56:53.252Z,11.25
2019-02-22T11:57:32.269Z,11.25
2019-02-22T11:58:32.281Z,11.25
2019-02-22T11:59:32.297Z,11.25
2019-02-22T12:00:32.323Z,11.25
2019-02-22T12:01:32.341Z,11.25
2019-02-22T12:02:53.381Z,11.25
2019-02-22T12:03:32.372Z,11.25
2019-02-22T12:04:32.421Z,11.25
2019-02-22T12:05:32.416Z,11.25
2019-02-22T12:06:32.475Z,11.25
2019-02-22T12:07:32.465Z,11.25
2019-02-22T12:08:53.493Z,11.25
2019-02-22T12:09:32.501Z,5.63
2019-02-22T12:10:32.522Z,5.63
2019-02-22T12:11:32.577Z,5.63
2019-02-22T12:12:32.566Z,5.63
2019-02-22T12:13:32.739Z,5.63
2019-02-22T12:14:53.628Z,5.63
2019-02-22T12:15:32.632Z,5.63
2019-02-22T12:16:32.635Z,5.63
2019-02-22T12:17:32.664Z,5.63
2019-02-22T12:18:32.675Z,5.63
2019-02-22T12:19:32.705Z,5.63
2019-02-22T12:20:53.743Z,5.63
2019-02-22T12:21:32.730Z,5.63
2019-02-22T12:22:32.752Z,5.63
2019-02-22T12:23:32.813Z,5.63
2019-02-22T12:24:32.811Z,5.63
2019-02-22T12:25:32.818Z,5.63
2019-02-22T12:26:53.856Z,5.63
2019-02-22T12:27:32.861Z,16.88
2019-02-22T12:28:32.906Z,5.63
2019-02-22T12:29:32.893Z,5.63
2019-02-22T12:30:32.912Z,5.63
2019-02-22T12:31:32.955Z,5.63
2019-02-22T12:32:53.968Z,5.63
2019-02-22T12:33:32.977Z,5.63
2019-02-22T12:34:32.990Z,5.63
2019-02-22T12:35:33.017Z,5.63
2019-02-22T12:36:33.055Z,5.63
2019-02-22T12:37:33.067Z,5.63
2019-02-22T12:38:54.073Z,5.63
2019-02-22T12:39:33.110Z,5.63
2019-02-22T12:40:33.184Z,5.63
2019-02-22T12:41:33.121Z,5.63
2019-02-22T12:42:33.150Z,5.63
2019-02-22T12:43:33.156Z,5.63
2019-02-22T12:45:02.531Z,5.63
2019-02-22T12:45:33.197Z,11.25
2019-02-22T12:46:33.215Z,11.25
2019-02-22T12:47:33.256Z,11.25
2019-02-22T12:50:15.510Z,11.25
2019-02-22T12:51:36.518Z,11.25
2019-02-22T12:52:15.534Z,11.25
2019-02-22T12:53:15.554Z,11.25
2019-02-22T12:54:15.582Z,11.25
2019-02-22T12:55:15.598Z,11.25
2019-02-22T12:56:15.623Z,5.63
2019-02-22T12:57:36.644Z,5.63
2019-02-22T12:58:15.664Z,5.63
2019-02-22T12:59:15.657Z,5.63
2019-02-22T13:00:15.695Z,5.63
2019-02-22T13:01:15.702Z,5.63
2019-02-22T13:02:15.726Z,5.63
2019-02-22T13:03:36.756Z,5.63
2019-02-22T13:04:15.758Z,5.63
2019-02-22T13:05:15.891Z,5.63
2019-02-22T13:06:15.812Z,5.63
2019-02-22T13:07:15.848Z,5.63
2019-02-22T13:08:15.831Z,5.63
2019-02-22T13:09:37.129Z,5.63
2019-02-22T13:10:15.876Z,5.63
2019-02-22T13:11:15.891Z,5.63
2019-02-22T13:12:17.384Z,5.63
2019-02-22T13:13:15.932Z,5.63
2019-02-22T13:14:15.957Z,5.63
2019-02-22T13:15:36.983Z,5.63
2019-02-22T13:18:37.828Z,5.63
2019-02-22T13:19:37.857Z,5.63
2019-02-22T13:20:37.869Z,5.63
2019-02-22T13:21:37.891Z,5.63
2019-02-22T13:22:58.923Z,5.63
2019-02-22T13:23:37.928Z,5.63
2019-02-22T13:24:38.006Z,5.63
2019-02-22T13:25:37.973Z,5.63
2019-02-22T13:26:38.097Z,5.63
2019-02-22T13:27:38.012Z,5.63
2019-02-22T13:28:59.056Z,5.63
2019-02-22T13:29:38.274Z,5.63
2019-02-22T13:30:38.050Z,5.63
2019-02-22T13:31:38.075Z,5.63
2019-02-22T13:32:38.137Z,5.63
2019-02-22T13:33:38.116Z,5.63
2019-02-22T13:34:59.145Z,5.63
2019-02-22T13:35:38.179Z,5.63
2019-02-22T13:36:38.174Z,5.63
2019-02-22T13:37:38.185Z,5.63
2019-02-22T13:38:38.214Z,5.63
2019-02-22T13:39:38.287Z,5.63
2019-02-22T13:40:59.364Z,5.63
2019-02-22T13:41:38.290Z,5.63
2019-02-22T13:42:38.285Z,5.63
2019-02-22T13:43:38.329Z,5.63
2019-02-22T13:44:38.383Z,5.63
2019-02-22T13:45:38.346Z,5.63
2019-02-22T13:46:59.384Z,5.63
2019-02-22T13:47:38.375Z,5.63